createdAt,value
2022-09-23T00:01:31.000Z,0.80
2022-09-23T00:04:00.197Z,0.70
2022-09-23T00:06:28.544Z,0.90
2022-09-23T00:08:56.571Z,0.62
2022-09-23T00:11:27.563Z,0.62
2022-09-23T00:13:58.411Z,0.70
2022-09-23T00:16:33.424Z,0.62
2022-09-23T00:19:02.657Z,1.25
2022-09-23T00:21:31.197Z,0.75
2022-09-23T00:23:59.419Z,0.80
2022-09-23T00:26:28.242Z,0.75
2022-09-23T00:28:56.791Z,0.73
2022-09-23T00:31:27.331Z,0.47
2022-09-23T00:34:02.465Z,0.75
2022-09-23T00:36:32.330Z,1.10
2022-09-23T00:39:00.417Z,0.80
2022-09-23T00:41:28.947Z,0.70
2022-09-23T00:43:59.904Z,0.68
2022-09-23T00:46:43.766Z,0.70
2022-09-23T00:49:22.235Z,0.52
2022-09-23T00:51:56.383Z,0.73
2022-09-23T00:54:27.399Z,0.50
2022-09-23T00:56:57.765Z,0.88
2022-09-23T00:59:29.057Z,0.80
2022-09-23T01:01:59.104Z,0.70
2022-09-23T01:04:29.845Z,0.73
2022-09-23T01:06:57.988Z,0.60
2022-09-23T01:09:26.485Z,0.90
2022-09-23T01:12:02.534Z,1.00
2022-09-23T01:14:55.090Z,1.00
2022-09-23T01:17:36.547Z,0.93
2022-09-23T01:20:32.184Z,0.88
2022-09-23T01:23:22.145Z,0.30
2022-09-23T01:26:11.776Z,0.50
2022-09-23T01:29:02.409Z,0.43
2022-09-23T01:31:55.209Z,0.40
2022-09-23T01:34:37.406Z,0.80
2022-09-23T01:37:13.512Z,0.50
2022-09-23T01:40:17.425Z,0.50
2022-09-23T01:43:10.464Z,0.77
2022-09-23T01:45:42.078Z,0.90
2022-09-23T01:48:42.112Z,0.55
2022-09-23T01:51:26.900Z,0.73
2022-09-23T01:54:15.910Z,0.60
2022-09-23T01:56:52.897Z,0.82
2022-09-23T01:59:38.445Z,0.37
2022-09-23T02:02:15.307Z,0.60
2022-09-23T02:04:54.378Z,0.60
2022-09-23T02:07:33.848Z,0.75
2022-09-23T02:10:18.910Z,0.75
2022-09-23T02:12:52.167Z,0.50
2022-09-23T02:15:27.867Z,0.88
2022-09-23T02:18:01.994Z,0.65
2022-09-23T02:20:34.819Z,0.70
2022-09-23T02:23:17.210Z,1.00
2022-09-23T02:25:56.383Z,1.05
2022-09-23T02:28:45.150Z,0.80
2022-09-23T02:31:40.785Z,0.93
2022-09-23T02:34:41.208Z,0.52
2022-09-23T02:37:37.385Z,0.60
2022-09-23T02:40:31.067Z,0.75
2022-09-23T02:43:35.506Z,0.80
2022-09-23T02:46:06.009Z,0.55
2022-09-23T02:48:41.853Z,1.00
2022-09-23T02:51:10.476Z,0.50
2022-09-23T02:53:39.649Z,1.02
2022-09-23T02:56:16.807Z,0.82
2022-09-23T02:58:47.032Z,0.43
2022-09-23T03:01:47.794Z,0.68
2022-09-23T03:04:47.440Z,1.00
2022-09-23T03:07:24.347Z,0.82
2022-09-23T03:09:55.417Z,0.70
2022-09-23T03:13:02.092Z,0.80
2022-09-23T03:15:39.112Z,1.00
2022-09-23T03:18:11.728Z,0.85
2022-09-23T03:20:50.564Z,1.48
2022-09-23T03:23:25.458Z,1.25
2022-09-23T03:25:56.880Z,2.25
2022-09-23T03:28:27.224Z,3.17
2022-09-23T03:30:59.937Z,2.90
2022-09-23T03:33:28.947Z,3.45
2022-09-23T03:36:22.767Z,2.90
2022-09-23T03:38:55.040Z,3.85
2022-09-23T03:41:38.874Z,3.10
2022-09-23T03:44:09.219Z,2.85
2022-09-23T03:46:37.918Z,2.53
2022-09-23T03:49:16.481Z,2.62
2022-09-23T03:51:45.285Z,2.45
2022-09-23T03:54:13.304Z,1.55
2022-09-23T03:56:41.975Z,0.90
2022-09-23T03:59:10.268Z,0.98
2022-09-23T04:01:38.334Z,0.60
2022-09-23T04:04:06.867Z,0.85
2022-09-23T04:06:35.666Z,0.95
2022-09-23T04:09:03.936Z,0.73
2022-09-23T04:11:32.480Z,0.35
2022-09-23T04:14:00.713Z,0.60
2022-09-23T04:16:29.186Z,0.68
2022-09-23T04:18:57.722Z,1.08
2022-09-23T04:21:26.887Z,0.82
2022-09-23T04:23:54.945Z,1.60
2022-09-23T04:26:23.551Z,1.48
2022-09-23T04:28:51.715Z,1.40
2022-09-23T04:31:19.825Z,1.15
2022-09-23T04:33:48.355Z,1.50
2022-09-23T04:36:17.016Z,1.40
2022-09-23T04:38:49.209Z,1.08
2022-09-23T04:41:18.722Z,1.33
2022-09-23T04:43:47.038Z,1.48
2022-09-23T04:46:16.389Z,1.10
2022-09-23T04:48:45.288Z,1.15
2022-09-23T04:51:16.370Z,1.50
2022-09-23T04:53:46.994Z,2.25
2022-09-23T04:56:20.468Z,1.85
2022-09-23T04:58:49.781Z,1.08
2022-09-23T05:01:26.857Z,0.95
2022-09-23T05:04:14.991Z,0.88
2022-09-23T05:06:45.153Z,1.25
2022-09-23T05:09:17.792Z,1.62
2022-09-23T05:11:46.282Z,1.30
2022-09-23T05:14:14.761Z,1.85
2022-09-23T05:16:43.016Z,1.50
2022-09-23T05:19:13.648Z,1.42
2022-09-23T05:21:42.142Z,0.90
2022-09-23T05:24:12.365Z,1.48
2022-09-23T05:26:40.883Z,1.02
2022-09-23T05:29:09.325Z,1.42
2022-09-23T05:31:37.408Z,1.55
2022-09-23T05:34:06.100Z,0.90
2022-09-23T05:36:38.645Z,1.27
2022-09-23T05:39:08.605Z,1.33
2022-09-23T05:41:37.248Z,1.58
2022-09-23T05:44:05.636Z,1.52
2022-09-23T05:46:34.360Z,1.40
2022-09-23T05:49:04.320Z,1.20
2022-09-23T05:51:34.751Z,1.65
2022-09-23T05:54:04.480Z,1.48
2022-09-23T05:56:33.810Z,1.90
2022-09-23T05:59:02.705Z,1.10
2022-09-23T06:01:34.328Z,1.08
2022-09-23T06:04:05.571Z,1.37
2022-09-23T06:06:39.602Z,1.12
2022-09-23T06:09:11.757Z,1.20
2022-09-23T06:11:40.309Z,1.10
2022-09-23T06:14:12.158Z,1.60
2022-09-23T06:16:40.328Z,1.30
2022-09-23T06:19:09.937Z,1.10
2022-09-23T06:21:40.535Z,2.08
2022-09-23T06:24:13.298Z,0.85
2022-09-23T06:26:44.169Z,1.15
2022-09-23T06:29:12.768Z,1.73
2022-09-23T06:31:42.120Z,1.15
2022-09-23T06:34:16.492Z,1.05
2022-09-23T06:36:46.597Z,0.70
2022-09-23T06:39:15.918Z,1.30
2022-09-23T06:41:45.468Z,1.70
2022-09-23T06:44:14.452Z,1.23
2022-09-23T06:46:44.129Z,1.40
2022-09-23T06:49:13.388Z,1.20
2022-09-23T06:51:41.899Z,0.90
2022-09-23T06:54:11.116Z,1.33
2022-09-23T06:56:40.280Z,0.95
2022-09-23T06:59:11.387Z,1.12
2022-09-23T07:01:39.760Z,1.25
2022-09-23T07:04:10.683Z,1.30
2022-09-23T07:06:39.376Z,1.40
2022-09-23T07:09:09.098Z,0.90
2022-09-23T07:11:37.811Z,1.50
2022-09-23T07:14:06.079Z,1.52
2022-09-23T07:16:34.491Z,1.12
2022-09-23T07:19:02.658Z,1.45
2022-09-23T07:21:31.747Z,1.12
2022-09-23T07:24:00.169Z,0.93
2022-09-23T07:26:29.512Z,1.02
2022-09-23T07:29:04.945Z,1.17
2022-09-23T07:31:39.518Z,1.20
2022-09-23T07:34:11.652Z,1.00
2022-09-23T07:36:40.930Z,1.17
2022-09-23T07:39:11.472Z,1.17
2022-09-23T07:41:41.885Z,1.17
2022-09-23T07:44:11.845Z,1.37
2022-09-23T07:46:40.353Z,1.35
2022-09-23T07:49:08.831Z,2.00
2022-09-23T07:51:39.493Z,1.67
2022-09-23T07:54:12.384Z,1.20
2022-09-23T07:56:41.874Z,0.75
2022-09-23T07:59:17.276Z,1.42
2022-09-23T08:01:48.794Z,1.25
2022-09-23T08:04:18.765Z,0.90
2022-09-23T08:06:54.035Z,1.23
2022-09-23T08:09:25.456Z,1.00
2022-09-23T08:11:54.078Z,1.12
2022-09-23T08:14:22.659Z,0.95
2022-09-23T08:16:52.019Z,0.80
2022-09-23T08:19:20.497Z,1.15
2022-09-23T08:21:52.075Z,0.80
2022-09-23T08:24:23.877Z,0.82
2022-09-23T08:26:54.374Z,1.12
2022-09-23T08:29:24.835Z,1.10
2022-09-23T08:31:53.840Z,1.17
2022-09-23T08:34:23.579Z,0.98
2022-09-23T08:36:52.543Z,0.85
2022-09-23T08:39:21.004Z,1.48
2022-09-23T08:42:19.252Z,1.02
2022-09-23T08:45:04.935Z,0.80
2022-09-23T08:47:43.789Z,1.40
2022-09-23T08:50:15.083Z,0.90
2022-09-23T08:52:50.937Z,0.90
2022-09-23T08:55:21.676Z,0.98
2022-09-23T08:58:26.017Z,1.27
2022-09-23T09:01:23.409Z,0.70
2022-09-23T09:04:02.123Z,0.68
2022-09-23T09:06:52.527Z,0.90
2022-09-23T09:09:36.754Z,0.90
2022-09-23T09:12:11.755Z,1.00
2022-09-23T09:17:35.289Z,0.70
2022-09-23T09:20:23.402Z,0.77
2022-09-23T09:23:15.582Z,0.90
2022-09-23T09:25:50.081Z,0.93
2022-09-23T09:28:27.962Z,0.85
2022-09-23T09:31:02.989Z,0.60
2022-09-23T09:33:44.717Z,0.60
2022-09-23T09:36:47.661Z,1.00
2022-09-23T09:39:16.509Z,0.90
2022-09-23T09:41:52.460Z,0.93
2022-09-23T09:44:39.188Z,1.15
2022-09-23T09:47:15.245Z,0.73
2022-09-23T09:49:59.076Z,0.85
2022-09-23T09:52:29.926Z,0.70
2022-09-23T09:55:13.442Z,0.90
2022-09-23T09:57:50.173Z,0.70
2022-09-23T10:00:35.637Z,1.00
2022-09-23T10:03:13.546Z,1.00
2022-09-23T10:05:45.089Z,0.80
2022-09-23T10:08:35.334Z,1.02
2022-09-23T10:11:13.006Z,0.98
2022-09-23T10:13:42.664Z,0.70
2022-09-23T10:16:10.948Z,1.05
2022-09-23T10:18:48.056Z,1.10
2022-09-23T10:21:23.116Z,0.90
2022-09-23T10:23:58.730Z,0.95
2022-09-23T10:26:41.278Z,1.17
2022-09-23T10:29:36.996Z,0.80
2022-09-23T10:32:30.315Z,0.82
2022-09-23T10:35:04.727Z,0.93
2022-09-23T10:37:37.628Z,0.80
2022-09-23T10:40:37.264Z,0.70
2022-09-23T10:43:58.477Z,1.17
2022-09-23T10:46:39.839Z,0.90
2022-09-23T10:49:27.670Z,0.75
2022-09-23T10:52:07.521Z,0.77
2022-09-23T10:55:02.385Z,0.70
2022-09-23T10:57:53.531Z,0.73
2022-09-23T11:00:47.011Z,1.08
2022-09-23T11:03:26.966Z,0.73
2022-09-23T11:06:38.890Z,0.98
2022-09-23T11:09:26.983Z,0.73
2022-09-23T11:12:02.043Z,0.93
2022-09-23T11:15:02.481Z,0.60
2022-09-23T11:18:02.929Z,0.88
2022-09-23T11:20:33.696Z,0.95
2022-09-23T11:23:20.291Z,0.65
2022-09-23T11:26:06.195Z,1.23
2022-09-23T11:28:40.636Z,0.93
2022-09-23T11:31:27.072Z,0.95
2022-09-23T11:34:35.173Z,0.75
2022-09-23T11:37:14.029Z,0.90
2022-09-23T11:39:52.530Z,0.98
2022-09-23T11:42:25.189Z,0.75
2022-09-23T11:44:58.388Z,0.68
2022-09-23T11:47:39.746Z,1.00
2022-09-23T11:50:33.375Z,0.73
2022-09-23T11:53:21.584Z,1.00
2022-09-23T11:56:01.226Z,0.80
2022-09-23T11:58:46.174Z,0.88
2022-09-23T12:01:45.576Z,1.12
2022-09-23T12:04:23.150Z,1.05
2022-09-23T12:07:02.963Z,0.77
2022-09-23T12:09:57.730Z,1.00
2022-09-23T12:12:39.517Z,0.93
2022-09-23T12:15:38.800Z,0.90
2022-09-23T12:18:13.063Z,1.42
2022-09-23T12:21:03.078Z,0.68
2022-09-23T12:23:37.307Z,0.88
2022-09-23T12:26:14.691Z,1.00
2022-09-23T12:28:45.530Z,0.60
2022-09-23T12:31:18.662Z,0.98
2022-09-23T12:33:52.424Z,0.80
2022-09-23T12:36:34.775Z,1.00
2022-09-23T12:39:08.196Z,0.90
2022-09-23T12:41:46.376Z,0.93
2022-09-23T12:44:26.663Z,1.02
2022-09-23T12:47:26.001Z,0.70
2022-09-23T12:49:55.266Z,1.05
2022-09-23T12:52:30.921Z,0.80
2022-09-23T12:55:24.464Z,1.00
2022-09-23T12:57:53.257Z,0.60
2022-09-23T13:00:27.437Z,0.60
2022-09-23T13:03:18.345Z,0.73
2022-09-23T13:06:16.982Z,1.00
2022-09-23T13:08:47.307Z,1.20
2022-09-23T13:11:31.663Z,0.68
2022-09-23T13:14:05.162Z,0.70
2022-09-23T13:16:43.842Z,0.85
2022-09-23T13:19:38.699Z,0.90
2022-09-23T13:22:12.039Z,0.73
2022-09-23T13:24:52.434Z,0.73
2022-09-23T13:27:33.774Z,0.98
2022-09-23T13:30:07.821Z,0.85
2022-09-23T13:32:41.078Z,1.05
2022-09-23T13:35:24.468Z,1.00
2022-09-23T13:37:53.703Z,1.10
2022-09-23T13:40:28.617Z,0.98
2022-09-23T13:43:00.859Z,0.93
2022-09-23T13:45:34.124Z,0.95
2022-09-23T13:48:15.525Z,1.45
2022-09-23T13:50:48.651Z,0.73
2022-09-23T13:53:29.630Z,1.23
2022-09-23T13:56:02.120Z,0.80
2022-09-23T13:58:32.604Z,1.30
2022-09-23T14:01:01.306Z,0.88
2022-09-23T14:03:37.303Z,0.90
2022-09-23T14:06:09.730Z,1.00
2022-09-23T14:08:47.529Z,1.00
2022-09-23T14:11:29.500Z,1.27
2022-09-23T14:14:01.004Z,1.20
2022-09-23T14:16:30.073Z,1.17
2022-09-23T14:19:00.702Z,1.15
2022-09-23T14:21:34.857Z,0.80
2022-09-23T14:24:22.881Z,0.80
2022-09-23T14:26:57.292Z,1.05
2022-09-23T14:32:04.480Z,0.82
2022-09-23T14:34:41.788Z,1.00
2022-09-23T14:37:37.755Z,1.08
2022-09-23T14:40:13.353Z,0.98
2022-09-23T14:42:44.839Z,0.60
2022-09-23T14:45:18.540Z,1.42
2022-09-23T14:47:58.379Z,1.05
2022-09-23T14:50:47.198Z,0.98
2022-09-23T14:53:24.177Z,0.70
2022-09-23T14:55:58.841Z,0.82
2022-09-23T14:58:30.879Z,0.90
2022-09-23T15:01:01.526Z,0.93
2022-09-23T15:03:30.038Z,0.90
2022-09-23T15:06:09.292Z,1.40
2022-09-23T15:08:37.397Z,2.50
2022-09-23T15:11:08.356Z,1.42
2022-09-23T15:13:42.024Z,1.08
2022-09-23T15:16:14.416Z,1.50
2022-09-23T15:18:46.374Z,1.40
2022-09-23T15:21:19.453Z,1.95
2022-09-23T15:23:56.127Z,1.48
2022-09-23T15:26:40.658Z,1.00
2022-09-23T15:29:09.928Z,1.40
2022-09-23T15:31:39.057Z,1.40
2022-09-23T15:34:07.360Z,1.25
2022-09-23T15:36:37.033Z,1.30
2022-09-23T15:39:08.675Z,1.08
2022-09-23T15:41:36.801Z,1.00
2022-09-23T15:44:17.217Z,1.45
2022-09-23T15:46:49.024Z,1.75
2022-09-23T15:49:33.099Z,2.08
2022-09-23T15:52:02.696Z,3.30
2022-09-23T15:54:32.500Z,4.55
2022-09-23T15:57:01.396Z,4.70
2022-09-23T15:59:31.586Z,4.10
2022-09-23T16:02:08.697Z,3.10
2022-09-23T16:04:38.767Z,3.10
2022-09-23T16:07:16.635Z,2.85
2022-09-23T16:09:45.129Z,8.20
2022-09-23T16:12:13.507Z,3.62
2022-09-23T16:14:41.659Z,2.10
2022-09-23T16:17:13.583Z,1.80
2022-09-23T16:19:41.820Z,3.20
2022-09-23T16:22:14.564Z,3.33
2022-09-23T16:24:43.049Z,3.30
2022-09-23T16:27:17.560Z,3.80
2022-09-23T16:29:45.818Z,2.37
2022-09-23T16:32:16.033Z,1.80
2022-09-23T16:34:47.131Z,1.80
2022-09-23T16:37:16.629Z,2.55
2022-09-23T16:39:44.723Z,2.55
2022-09-23T16:42:13.575Z,2.67
2022-09-23T16:44:42.125Z,3.17
2022-09-23T16:47:10.101Z,2.75
2022-09-23T16:49:38.641Z,3.35
2022-09-23T16:52:07.575Z,2.37
2022-09-23T16:54:37.497Z,1.65
2022-09-23T16:57:06.238Z,1.42
2022-09-23T16:59:54.507Z,1.50
2022-09-23T17:02:41.668Z,1.35
2022-09-23T17:05:10.904Z,1.12
2022-09-23T17:07:38.984Z,1.30
2022-09-23T17:10:07.577Z,1.10
2022-09-23T17:12:36.659Z,1.90
2022-09-23T17:15:07.437Z,2.87
2022-09-23T17:17:37.886Z,4.30
2022-09-23T17:20:06.718Z,7.65
2022-09-23T17:22:34.808Z,6.43
2022-09-23T17:25:03.968Z,7.32
2022-09-23T17:27:33.432Z,5.03
2022-09-23T17:30:01.572Z,5.60
2022-09-23T17:32:31.498Z,5.28
2022-09-23T17:35:04.505Z,5.35
2022-09-23T17:37:33.425Z,4.22
2022-09-23T17:40:02.499Z,3.65
2022-09-23T17:42:31.114Z,3.28
2022-09-23T17:45:01.163Z,4.32
2022-09-23T17:47:29.247Z,2.37
2022-09-23T17:49:58.831Z,2.37
2022-09-23T17:52:27.186Z,2.00
2022-09-23T17:54:55.229Z,1.65
2022-09-23T17:57:23.295Z,2.58
2022-09-23T17:59:53.728Z,2.87
2022-09-23T18:02:22.680Z,2.53
2022-09-23T18:04:51.263Z,2.30
2022-09-23T18:07:19.235Z,3.47
2022-09-23T18:09:47.818Z,2.33
2022-09-23T18:12:16.896Z,1.15
2022-09-23T18:14:45.460Z,1.20
2022-09-23T18:17:13.491Z,1.35
2022-09-23T18:19:42.556Z,1.45
2022-09-23T18:22:10.942Z,1.20
2022-09-23T18:24:41.131Z,1.30
2022-09-23T18:27:09.659Z,1.17
2022-09-23T18:29:37.808Z,1.20
2022-09-23T18:32:05.930Z,1.48
2022-09-23T18:34:34.486Z,1.02
2022-09-23T18:37:02.762Z,1.23
2022-09-23T18:39:30.747Z,1.48
2022-09-23T18:42:00.182Z,1.75
2022-09-23T18:44:28.396Z,2.62
2022-09-23T18:46:56.492Z,1.37
2022-09-23T18:49:43.715Z,1.55
2022-09-23T18:52:12.434Z,1.12
2022-09-23T18:54:40.829Z,1.40
2022-09-23T18:57:13.392Z,1.50
2022-09-23T18:59:44.342Z,1.70
2022-09-23T19:02:13.046Z,1.25
2022-09-23T19:04:41.444Z,2.10
2022-09-23T19:07:09.635Z,1.92
2022-09-23T19:09:37.899Z,2.10
2022-09-23T19:12:06.316Z,1.75
2022-09-23T19:14:34.447Z,1.90
2022-09-23T19:17:04.539Z,1.58
2022-09-23T19:19:33.083Z,2.22
2022-09-23T19:22:01.212Z,1.52
2022-09-23T19:24:29.247Z,1.80
2022-09-23T19:26:57.687Z,1.10
2022-09-23T19:29:26.305Z,0.95
2022-09-23T19:31:54.471Z,1.08
2022-09-23T19:34:29.128Z,1.42
2022-09-23T19:36:57.921Z,1.00
2022-09-23T19:39:28.512Z,0.70
2022-09-23T19:41:56.717Z,1.15
2022-09-23T19:44:28.065Z,0.80
2022-09-23T19:46:57.456Z,1.10
2022-09-23T19:49:26.259Z,1.50
2022-09-23T19:51:55.999Z,1.65
2022-09-23T19:54:27.112Z,0.77
2022-09-23T19:56:55.718Z,0.95
2022-09-23T19:59:26.315Z,0.85
2022-09-23T20:01:55.000Z,0.75
2022-09-23T20:04:23.825Z,1.20
2022-09-23T20:06:51.840Z,0.95
2022-09-23T20:09:20.248Z,1.40
2022-09-23T20:11:48.817Z,1.40
2022-09-23T20:14:17.300Z,0.82
2022-09-23T20:16:45.613Z,0.93
2022-09-23T20:19:14.203Z,0.85
2022-09-23T20:21:42.271Z,1.40
2022-09-23T20:24:12.060Z,0.88
2022-09-23T20:26:59.290Z,1.67
2022-09-23T20:29:27.400Z,1.83
2022-09-23T20:31:56.993Z,1.98
2022-09-23T20:34:25.079Z,1.90
2022-09-23T20:36:53.101Z,1.25
2022-09-23T20:39:21.822Z,1.65
2022-09-23T20:41:50.532Z,1.20
2022-09-23T20:44:18.955Z,1.62
2022-09-23T20:46:48.973Z,2.10
2022-09-23T20:49:17.824Z,0.93
2022-09-23T20:51:48.413Z,1.40
2022-09-23T20:54:20.940Z,2.17
2022-09-23T20:56:49.037Z,1.60
2022-09-23T20:59:18.014Z,1.40
2022-09-23T21:01:47.863Z,1.75
2022-09-23T21:04:16.159Z,1.73
2022-09-23T21:06:44.620Z,1.90
2022-09-23T21:09:12.881Z,1.95
2022-09-23T21:11:41.372Z,2.25
2022-09-23T21:14:10.169Z,2.47
2022-09-23T21:16:38.809Z,3.00
2022-09-23T21:19:08.111Z,3.45
2022-09-23T21:21:36.812Z,3.00
2022-09-23T21:24:33.040Z,2.97
2022-09-23T21:26:53.933Z,3.25
2022-09-23T21:29:22.074Z,3.33
2022-09-23T21:31:52.673Z,2.08
2022-09-23T21:34:21.272Z,2.33
2022-09-23T21:36:49.325Z,2.87
2022-09-23T21:39:17.468Z,2.40
2022-09-23T21:41:45.796Z,2.28
2022-09-23T21:44:13.913Z,2.47
2022-09-23T21:46:42.038Z,1.67
2022-09-23T21:49:10.481Z,1.62
2022-09-23T21:51:43.022Z,1.48
2022-09-23T21:54:14.366Z,1.85
2022-09-23T21:56:43.910Z,1.12
2022-09-23T21:59:12.960Z,1.15
2022-09-23T22:01:44.538Z,1.00
2022-09-23T22:04:16.025Z,1.05
2022-09-23T22:06:45.005Z,1.25
2022-09-23T22:09:19.467Z,0.90
2022-09-23T22:12:07.865Z,0.80
2022-09-23T22:14:37.002Z,0.90
2022-09-23T22:17:11.461Z,0.90
2022-09-23T22:19:46.741Z,1.48
2022-09-23T22:24:48.259Z,0.98
2022-09-23T22:27:19.054Z,1.00
2022-09-23T22:30:06.868Z,1.02
2022-09-23T22:32:40.937Z,0.70
2022-09-23T22:35:12.203Z,0.93
2022-09-23T22:37:40.289Z,1.30
2022-09-23T22:40:11.401Z,1.12
2022-09-23T22:42:41.845Z,1.10
2022-09-23T22:45:11.540Z,0.82
2022-09-23T22:47:42.080Z,1.45
2022-09-23T22:50:10.511Z,1.17
2022-09-23T22:52:38.700Z,1.02
2022-09-23T22:55:08.268Z,1.15
2022-09-23T22:57:36.926Z,1.50
2022-09-23T23:00:07.854Z,0.93
2022-09-23T23:02:36.841Z,1.30
2022-09-23T23:05:05.348Z,1.40
2022-09-23T23:07:34.957Z,1.02
2022-09-23T23:10:04.706Z,1.20
2022-09-23T23:12:33.598Z,1.40
2022-09-23T23:15:01.889Z,1.30
2022-09-23T23:17:30.511Z,1.37
2022-09-23T23:19:58.535Z,1.10
2022-09-23T23:22:28.571Z,0.65
2022-09-23T23:24:57.194Z,0.98
2022-09-23T23:27:25.314Z,0.85
2022-09-23T23:29:54.064Z,0.62
2022-09-23T23:32:22.452Z,0.60
2022-09-23T23:34:50.700Z,0.70
2022-09-23T23:37:20.901Z,0.50
2022-09-23T23:39:49.630Z,0.68
2022-09-23T23:42:17.812Z,0.77
2022-09-23T23:44:45.913Z,0.60
2022-09-23T23:47:14.278Z,0.55
2022-09-23T23:49:45.511Z,0.62
2022-09-23T23:52:13.526Z,0.80
2022-09-23T23:54:41.947Z,0.90
2022-09-23T23:57:10.183Z,1.10
2022-09-23T23:59:38.826Z,1.15
